sensor_id;sensor_type;location;lat;lon;timestamp;pressure;altitude;pressure_sealevel;temperature
34807;BMP180;18310;55.586;12.286;2022-11-15T00:02:10;101480.00;;;18.80
34807;BMP180;18310;55.586;12.286;2022-11-15T00:05:14;101468.00;;;18.90
34807;BMP180;18310;55.586;12.286;2022-11-15T00:08:20;101471.00;;;18.90
34807;BMP180;18310;55.586;12.286;2022-11-15T00:11:26;101471.00;;;18.90
34807;BMP180;18310;55.586;12.286;2022-11-15T00:14:31;101461.00;;;18.90
34807;BMP180;18310;55.586;12.286;2022-11-15T00:17:34;101461.00;;;18.90
34807;BMP180;18310;55.586;12.286;2022-11-15T00:20:39;101460.00;;;18.90
34807;BMP180;18310;55.586;12.286;2022-11-15T00:23:45;101457.00;;;18.90
34807;BMP180;18310;55.586;12.286;2022-11-15T00:26:48;101446.00;;;18.90
34807;BMP180;18310;55.586;12.286;2022-11-15T00:29:51;101454.00;;;18.90
34807;BMP180;18310;55.586;12.286;2022-11-15T00:32:56;101447.00;;;18.90
34807;BMP180;18310;55.586;12.286;2022-11-15T00:36:00;101438.00;;;18.90
34807;BMP180;18310;55.586;12.286;2022-11-15T00:39:05;101437.00;;;18.90
34807;BMP180;18310;55.586;12.286;2022-11-15T00:42:08;101440.00;;;18.90
34807;BMP180;18310;55.586;12.286;2022-11-15T00:45:12;101434.00;;;18.90
34807;BMP180;18310;55.586;12.286;2022-11-15T00:48:15;101431.00;;;18.90
34807;BMP180;18310;55.586;12.286;2022-11-15T00:51:19;101422.00;;;18.90
34807;BMP180;18310;55.586;12.286;2022-11-15T00:54:23;101417.00;;;18.90
34807;BMP180;18310;55.586;12.286;2022-11-15T00:57:26;101414.00;;;18.90
34807;BMP180;18310;55.586;12.286;2022-11-15T01:00:30;101417.00;;;18.90
34807;BMP180;18310;55.586;12.286;2022-11-15T01:03:33;101417.00;;;18.90
34807;BMP180;18310;55.586;12.286;2022-11-15T01:06:36;101428.00;;;18.90
34807;BMP180;18310;55.586;12.286;2022-11-15T01:09:41;101425.00;;;18.90
34807;BMP180;18310;55.586;12.286;2022-11-15T01:12:44;101433.00;;;18.90
34807;BMP180;18310;55.586;12.286;2022-11-15T01:15:47;101427.00;;;18.90
34807;BMP180;18310;55.586;12.286;2022-11-15T01:18:50;101416.00;;;18.90
34807;BMP180;18310;55.586;12.286;2022-11-15T01:21:53;101411.00;;;18.90
34807;BMP180;18310;55.586;12.286;2022-11-15T01:24:58;101414.00;;;18.90
34807;BMP180;18310;55.586;12.286;2022-11-15T01:28:02;101411.00;;;18.90
34807;BMP180;18310;55.586;12.286;2022-11-15T01:31:09;101390.00;;;19.00
34807;BMP180;18310;55.586;12.286;2022-11-15T01:34:14;101396.00;;;19.00
34807;BMP180;18310;55.586;12.286;2022-11-15T01:37:18;101382.00;;;19.00
34807;BMP180;18310;55.586;12.286;2022-11-15T01:40:22;101387.00;;;19.00
34807;BMP180;18310;55.586;12.286;2022-11-15T01:43:30;101390.00;;;19.00
34807;BMP180;18310;55.586;12.286;2022-11-15T01:46:37;101380.00;;;19.00
34807;BMP180;18310;55.586;12.286;2022-11-15T01:49:54;101388.00;;;19.00
34807;BMP180;18310;55.586;12.286;2022-11-15T01:52:59;101383.00;;;19.00
34807;BMP180;18310;55.586;12.286;2022-11-15T01:56:07;101379.00;;;19.00
34807;BMP180;18310;55.586;12.286;2022-11-15T01:59:11;101367.00;;;18.90
34807;BMP180;18310;55.586;12.286;2022-11-15T02:02:15;101368.00;;;18.90
34807;BMP180;18310;55.586;12.286;2022-11-15T02:05:19;101374.00;;;18.90
34807;BMP180;18310;55.586;12.286;2022-11-15T02:08:22;101372.00;;;18.90
34807;BMP180;18310;55.586;12.286;2022-11-15T02:11:28;101366.00;;;19.00
34807;BMP180;18310;55.586;12.286;2022-11-15T02:14:32;101367.00;;;19.00
34807;BMP180;18310;55.586;12.286;2022-11-15T02:17:58;101362.00;;;19.00
34807;BMP180;18310;55.586;12.286;2022-11-15T02:21:18;101358.00;;;19.00
34807;BMP180;18310;55.586;12.286;2022-11-15T02:24:58;101351.00;;;19.00
34807;BMP180;18310;55.586;12.286;2022-11-15T02:28:44;101341.00;;;18.90
34807;BMP180;18310;55.586;12.286;2022-11-15T02:31:56;101333.00;;;18.90
34807;BMP180;18310;55.586;12.286;2022-11-15T02:35:17;101320.00;;;19.00
34807;BMP180;18310;55.586;12.286;2022-11-15T02:38:32;101309.00;;;18.90
34807;BMP180;18310;55.586;12.286;2022-11-15T02:41:46;101310.00;;;18.90
34807;BMP180;18310;55.586;12.286;2022-11-15T02:44:53;101308.00;;;18.90
34807;BMP180;18310;55.586;12.286;2022-11-15T02:48:01;101304.00;;;18.90
34807;BMP180;18310;55.586;12.286;2022-11-15T02:51:07;101297.00;;;18.90
34807;BMP180;18310;55.586;12.286;2022-11-15T02:54:14;101301.00;;;18.90
34807;BMP180;18310;55.586;12.286;2022-11-15T02:57:29;101289.00;;;18.90
34807;BMP180;18310;55.586;12.286;2022-11-15T03:00:41;101303.00;;;18.90
34807;BMP180;18310;55.586;12.286;2022-11-15T03:04:00;101284.00;;;18.80
34807;BMP180;18310;55.586;12.286;2022-11-15T03:07:14;101284.00;;;18.80
34807;BMP180;18310;55.586;12.286;2022-11-15T03:10:25;101285.00;;;18.80
34807;BMP180;18310;55.586;12.286;2022-11-15T03:13:37;101282.00;;;18.80
34807;BMP180;18310;55.586;12.286;2022-11-15T03:16:48;101279.00;;;18.80
34807;BMP180;18310;55.586;12.286;2022-11-15T03:19:58;101278.00;;;18.70
34807;BMP180;18310;55.586;12.286;2022-11-15T03:23:08;101282.00;;;18.60
34807;BMP180;18310;55.586;12.286;2022-11-15T03:26:14;101279.00;;;18.60
34807;BMP180;18310;55.586;12.286;2022-11-15T03:29:27;101263.00;;;18.60
34807;BMP180;18310;55.586;12.286;2022-11-15T03:32:39;101266.00;;;18.50
34807;BMP180;18310;55.586;12.286;2022-11-15T03:35:45;101262.00;;;18.50
34807;BMP180;18310;55.586;12.286;2022-11-15T03:38:54;101262.00;;;18.60
34807;BMP180;18310;55.586;12.286;2022-11-15T03:42:13;101272.00;;;18.60
34807;BMP180;18310;55.586;12.286;2022-11-15T03:45:23;101262.00;;;18.60
34807;BMP180;18310;55.586;12.286;2022-11-15T03:48:35;101264.00;;;18.70
34807;BMP180;18310;55.586;12.286;2022-11-15T03:51:41;101255.00;;;18.60
34807;BMP180;18310;55.586;12.286;2022-11-15T03:54:53;101250.00;;;18.70
34807;BMP180;18310;55.586;12.286;2022-11-15T03:58:00;101238.00;;;18.70
34807;BMP180;18310;55.586;12.286;2022-11-15T04:01:04;101245.00;;;18.70
34807;BMP180;18310;55.586;12.286;2022-11-15T04:04:07;101251.00;;;18.70
34807;BMP180;18310;55.586;12.286;2022-11-15T04:07:13;101256.00;;;18.80
34807;BMP180;18310;55.586;12.286;2022-11-15T04:10:18;101253.00;;;18.70
34807;BMP180;18310;55.586;12.286;2022-11-15T04:13:22;101266.00;;;18.70
34807;BMP180;18310;55.586;12.286;2022-11-15T04:16:25;101262.00;;;18.70
34807;BMP180;18310;55.586;12.286;2022-11-15T04:19:28;101264.00;;;18.70
34807;BMP180;18310;55.586;12.286;2022-11-15T04:22:53;101253.00;;;18.70
34807;BMP180;18310;55.586;12.286;2022-11-15T04:26:14;101257.00;;;18.80
34807;BMP180;18310;55.586;12.286;2022-11-15T04:29:19;101260.00;;;18.70
34807;BMP180;18310;55.586;12.286;2022-11-15T04:32:37;101265.00;;;18.70
34807;BMP180;18310;55.586;12.286;2022-11-15T04:35:42;101256.00;;;18.70
34807;BMP180;18310;55.586;12.286;2022-11-15T04:39:07;101263.00;;;18.70
34807;BMP180;18310;55.586;12.286;2022-11-15T04:42:10;101266.00;;;18.80
34807;BMP180;18310;55.586;12.286;2022-11-15T04:45:14;101263.00;;;18.80
34807;BMP180;18310;55.586;12.286;2022-11-15T04:48:18;101267.00;;;18.80
34807;BMP180;18310;55.586;12.286;2022-11-15T04:51:22;101263.00;;;18.80
34807;BMP180;18310;55.586;12.286;2022-11-15T04:54:26;101252.00;;;18.80
34807;BMP180;18310;55.586;12.286;2022-11-15T04:57:30;101265.00;;;18.80
34807;BMP180;18310;55.586;12.286;2022-11-15T05:00:33;101255.00;;;18.80
34807;BMP180;18310;55.586;12.286;2022-11-15T05:03:36;101255.00;;;18.80
34807;BMP180;18310;55.586;12.286;2022-11-15T05:06:58;101255.00;;;18.80
34807;BMP180;18310;55.586;12.286;2022-11-15T05:10:03;101253.00;;;18.80
34807;BMP180;18310;55.586;12.286;2022-11-15T05:13:07;101255.00;;;18.80
34807;BMP180;18310;55.586;12.286;2022-11-15T05:16:10;101258.00;;;18.90
34807;BMP180;18310;55.586;12.286;2022-11-15T05:19:14;101243.00;;;18.90
34807;BMP180;18310;55.586;12.286;2022-11-15T05:22:17;101241.00;;;18.90
34807;BMP180;18310;55.586;12.286;2022-11-15T05:25:22;101249.00;;;18.90
34807;BMP180;18310;55.586;12.286;2022-11-15T05:28:25;101243.00;;;18.90
34807;BMP180;18310;55.586;12.286;2022-11-15T05:31:29;101249.00;;;18.90
34807;BMP180;18310;55.586;12.286;2022-11-15T05:34:32;101245.00;;;18.90
34807;BMP180;18310;55.586;12.286;2022-11-15T05:37:36;101263.00;;;18.90
34807;BMP180;18310;55.586;12.286;2022-11-15T05:40:41;101233.00;;;18.90
34807;BMP180;18310;55.586;12.286;2022-11-15T05:43:46;101251.00;;;18.90
34807;BMP180;18310;55.586;12.286;2022-11-15T05:46:54;101245.00;;;18.90
34807;BMP180;18310;55.586;12.286;2022-11-15T05:50:02;101248.00;;;18.90
34807;BMP180;18310;55.586;12.286;2022-11-15T05:53:06;101256.00;;;18.90
34807;BMP180;18310;55.586;12.286;2022-11-15T05:56:12;101257.00;;;18.90
34807;BMP180;18310;55.586;12.286;2022-11-15T05:59:17;101250.00;;;18.90
34807;BMP180;18310;55.586;12.286;2022-11-15T06:02:21;101256.00;;;18.90
34807;BMP180;18310;55.586;12.286;2022-11-15T06:05:25;101248.00;;;18.90
34807;BMP180;18310;55.586;12.286;2022-11-15T06:08:29;101257.00;;;18.90
34807;BMP180;18310;55.586;12.286;2022-11-15T06:11:34;101269.00;;;18.90
34807;BMP180;18310;55.586;12.286;2022-11-15T06:14:37;101255.00;;;18.90
34807;BMP180;18310;55.586;12.286;2022-11-15T06:17:41;101252.00;;;18.90
34807;BMP180;18310;55.586;12.286;2022-11-15T06:20:47;101254.00;;;18.90
34807;BMP180;18310;55.586;12.286;2022-11-15T06:23:50;101251.00;;;18.90
34807;BMP180;18310;55.586;12.286;2022-11-15T06:26:55;101240.00;;;18.90
34807;BMP180;18310;55.586;12.286;2022-11-15T06:30:00;101240.00;;;18.90
34807;BMP180;18310;55.586;12.286;2022-11-15T06:33:04;101228.00;;;18.90
34807;BMP180;18310;55.586;12.286;2022-11-15T06:36:11;101248.00;;;18.90
34807;BMP180;18310;55.586;12.286;2022-11-15T06:39:19;101256.00;;;18.90
34807;BMP180;18310;55.586;12.286;2022-11-15T06:42:24;101260.00;;;18.90
34807;BMP180;18310;55.586;12.286;2022-11-15T06:45:27;101246.00;;;18.90
34807;BMP180;18310;55.586;12.286;2022-11-15T06:48:32;101253.00;;;18.90
34807;BMP180;18310;55.586;12.286;2022-11-15T06:51:35;101260.00;;;18.90
34807;BMP180;18310;55.586;12.286;2022-11-15T06:54:38;101275.00;;;18.90
34807;BMP180;18310;55.586;12.286;2022-11-15T06:57:49;101274.00;;;18.90
34807;BMP180;18310;55.586;12.286;2022-11-15T07:00:53;101275.00;;;18.90
34807;BMP180;18310;55.586;12.286;2022-11-15T07:03:57;101278.00;;;18.90
34807;BMP180;18310;55.586;12.286;2022-11-15T07:07:00;101273.00;;;18.90
34807;BMP180;18310;55.586;12.286;2022-11-15T07:10:06;101278.00;;;18.90
34807;BMP180;18310;55.586;12.286;2022-11-15T07:13:10;101284.00;;;18.90
34807;BMP180;18310;55.586;12.286;2022-11-15T07:16:14;101281.00;;;18.90
34807;BMP180;18310;55.586;12.286;2022-11-15T07:19:17;101300.00;;;18.80
34807;BMP180;18310;55.586;12.286;2022-11-15T07:22:20;101298.00;;;18.80
34807;BMP180;18310;55.586;12.286;2022-11-15T07:25:23;101308.00;;;18.80
34807;BMP180;18310;55.586;12.286;2022-11-15T07:28:28;101302.00;;;18.80
34807;BMP180;18310;55.586;12.286;2022-11-15T07:31:32;101298.00;;;18.80
34807;BMP180;18310;55.586;12.286;2022-11-15T07:34:36;101306.00;;;18.80
34807;BMP180;18310;55.586;12.286;2022-11-15T07:37:39;101308.00;;;18.80
34807;BMP180;18310;55.586;12.286;2022-11-15T07:40:42;101306.00;;;18.70
34807;BMP180;18310;55.586;12.286;2022-11-15T07:43:47;101313.00;;;18.70
34807;BMP180;18310;55.586;12.286;2022-11-15T07:46:50;101322.00;;;18.70
34807;BMP180;18310;55.586;12.286;2022-11-15T07:49:53;101326.00;;;18.70
34807;BMP180;18310;55.586;12.286;2022-11-15T07:52:58;101322.00;;;18.70
34807;BMP180;18310;55.586;12.286;2022-11-15T07:56:02;101326.00;;;18.70
34807;BMP180;18310;55.586;12.286;2022-11-15T07:59:06;101327.00;;;18.70
34807;BMP180;18310;55.586;12.286;2022-11-15T08:02:10;101327.00;;;18.70
34807;BMP180;18310;55.586;12.286;2022-11-15T08:05:13;101333.00;;;18.70
34807;BMP180;18310;55.586;12.286;2022-11-15T08:08:17;101332.00;;;18.70
34807;BMP180;18310;55.586;12.286;2022-11-15T08:11:21;101329.00;;;18.70
34807;BMP180;18310;55.586;12.286;2022-11-15T08:14:26;101321.00;;;18.70
34807;BMP180;18310;55.586;12.286;2022-11-15T08:17:30;101333.00;;;18.70
34807;BMP180;18310;55.586;12.286;2022-11-15T08:20:36;101330.00;;;18.70
34807;BMP180;18310;55.586;12.286;2022-11-15T08:23:39;101319.00;;;18.70
34807;BMP180;18310;55.586;12.286;2022-11-15T08:26:42;101338.00;;;18.70
34807;BMP180;18310;55.586;12.286;2022-11-15T08:29:49;101329.00;;;18.60
34807;BMP180;18310;55.586;12.286;2022-11-15T08:33:00;101327.00;;;18.60
34807;BMP180;18310;55.586;12.286;2022-11-15T08:36:04;101330.00;;;18.60
34807;BMP180;18310;55.586;12.286;2022-11-15T08:39:10;101328.00;;;18.60
34807;BMP180;18310;55.586;12.286;2022-11-15T08:42:14;101328.00;;;18.60
34807;BMP180;18310;55.586;12.286;2022-11-15T08:45:22;101328.00;;;18.50
34807;BMP180;18310;55.586;12.286;2022-11-15T08:48:25;101331.00;;;18.50
34807;BMP180;18310;55.586;12.286;2022-11-15T08:51:29;101330.00;;;18.50
34807;BMP180;18310;55.586;12.286;2022-11-15T08:54:32;101326.00;;;18.50
34807;BMP180;18310;55.586;12.286;2022-11-15T08:57:36;101332.00;;;18.50
34807;BMP180;18310;55.586;12.286;2022-11-15T09:00:40;101336.00;;;18.40
34807;BMP180;18310;55.586;12.286;2022-11-15T09:03:44;101335.00;;;18.40
34807;BMP180;18310;55.586;12.286;2022-11-15T09:06:47;101341.00;;;18.40
34807;BMP180;18310;55.586;12.286;2022-11-15T09:09:51;101341.00;;;18.40
34807;BMP180;18310;55.586;12.286;2022-11-15T09:12:56;101342.00;;;18.40
34807;BMP180;18310;55.586;12.286;2022-11-15T09:16:01;101339.00;;;18.40
34807;BMP180;18310;55.586;12.286;2022-11-15T09:19:06;101338.00;;;18.40
34807;BMP180;18310;55.586;12.286;2022-11-15T09:22:13;101344.00;;;18.40
34807;BMP180;18310;55.586;12.286;2022-11-15T09:25:16;101344.00;;;18.40
34807;BMP180;18310;55.586;12.286;2022-11-15T09:28:20;101359.00;;;18.40
34807;BMP180;18310;55.586;12.286;2022-11-15T09:31:25;101352.00;;;18.40
34807;BMP180;18310;55.586;12.286;2022-11-15T09:34:28;101349.00;;;18.40
34807;BMP180;18310;55.586;12.286;2022-11-15T09:37:32;101349.00;;;18.40
34807;BMP180;18310;55.586;12.286;2022-11-15T09:40:37;101350.00;;;18.40
34807;BMP180;18310;55.586;12.286;2022-11-15T09:43:53;101358.00;;;18.40
34807;BMP180;18310;55.586;12.286;2022-11-15T09:47:19;101360.00;;;18.40
34807;BMP180;18310;55.586;12.286;2022-11-15T09:50:38;101360.00;;;18.40
34807;BMP180;18310;55.586;12.286;2022-11-15T09:53:52;101368.00;;;18.40
34807;BMP180;18310;55.586;12.286;2022-11-15T09:57:28;101369.00;;;18.40
34807;BMP180;18310;55.586;12.286;2022-11-15T10:00:37;101357.00;;;18.40
34807;BMP180;18310;55.586;12.286;2022-11-15T10:03:51;101361.00;;;18.40
34807;BMP180;18310;55.586;12.286;2022-11-15T10:07:02;101364.00;;;18.40
34807;BMP180;18310;55.586;12.286;2022-11-15T10:10:15;101362.00;;;18.40
34807;BMP180;18310;55.586;12.286;2022-11-15T10:13:25;101365.00;;;18.50
34807;BMP180;18310;55.586;12.286;2022-11-15T10:20:48;101348.00;;;18.50
34807;BMP180;18310;55.586;12.286;2022-11-15T10:24:12;101343.00;;;18.50
34807;BMP180;18310;55.586;12.286;2022-11-15T10:27:18;101359.00;;;18.50
34807;BMP180;18310;55.586;12.286;2022-11-15T10:30:23;101359.00;;;18.50
34807;BMP180;18310;55.586;12.286;2022-11-15T10:33:33;101356.00;;;18.50
34807;BMP180;18310;55.586;12.286;2022-11-15T10:36:43;101351.00;;;18.50
34807;BMP180;18310;55.586;12.286;2022-11-15T10:40:04;101355.00;;;18.60
34807;BMP180;18310;55.586;12.286;2022-11-15T10:43:16;101365.00;;;18.60
34807;BMP180;18310;55.586;12.286;2022-11-15T10:46:22;101367.00;;;18.70
34807;BMP180;18310;55.586;12.286;2022-11-15T10:50:03;101371.00;;;18.70
34807;BMP180;18310;55.586;12.286;2022-11-15T10:53:21;101375.00;;;18.80
34807;BMP180;18310;55.586;12.286;2022-11-15T10:56:27;101374.00;;;18.80
34807;BMP180;18310;55.586;12.286;2022-11-15T10:59:35;101380.00;;;18.70
34807;BMP180;18310;55.586;12.286;2022-11-15T11:02:57;101371.00;;;18.70
34807;BMP180;18310;55.586;12.286;2022-11-15T11:06:07;101375.00;;;18.70
34807;BMP180;18310;55.586;12.286;2022-11-15T11:09:28;101384.00;;;18.70
34807;BMP180;18310;55.586;12.286;2022-11-15T11:12:33;101373.00;;;18.70
34807;BMP180;18310;55.586;12.286;2022-11-15T11:15:37;101376.00;;;18.70
34807;BMP180;18310;55.586;12.286;2022-11-15T11:18:51;101370.00;;;18.70
34807;BMP180;18310;55.586;12.286;2022-11-15T11:22:11;101368.00;;;18.70
34807;BMP180;18310;55.586;12.286;2022-11-15T11:25:33;101368.00;;;18.70
34807;BMP180;18310;55.586;12.286;2022-11-15T11:28:50;101371.00;;;18.80
34807;BMP180;18310;55.586;12.286;2022-11-15T11:32:05;101361.00;;;18.80
34807;BMP180;18310;55.586;12.286;2022-11-15T11:35:19;101370.00;;;18.80
34807;BMP180;18310;55.586;12.286;2022-11-15T11:38:57;101355.00;;;18.80
34807;BMP180;18310;55.586;12.286;2022-11-15T11:42:13;101367.00;;;18.80
34807;BMP180;18310;55.586;12.286;2022-11-15T11:45:40;101359.00;;;18.80
34807;BMP180;18310;55.586;12.286;2022-11-15T11:48:53;101359.00;;;18.80
34807;BMP180;18310;55.586;12.286;2022-11-15T11:52:09;101357.00;;;18.90
34807;BMP180;18310;55.586;12.286;2022-11-15T11:55:15;101348.00;;;18.90
34807;BMP180;18310;55.586;12.286;2022-11-15T11:58:29;101343.00;;;18.90
34807;BMP180;18310;55.586;12.286;2022-11-15T12:01:41;101341.00;;;18.90
34807;BMP180;18310;55.586;12.286;2022-11-15T12:04:51;101338.00;;;18.90
34807;BMP180;18310;55.586;12.286;2022-11-15T12:08:08;101340.00;;;18.90
34807;BMP180;18310;55.586;12.286;2022-11-15T12:11:18;101339.00;;;18.90
34807;BMP180;18310;55.586;12.286;2022-11-15T12:14:34;101333.00;;;18.90
34807;BMP180;18310;55.586;12.286;2022-11-15T12:17:41;101333.00;;;18.90
34807;BMP180;18310;55.586;12.286;2022-11-15T12:20:58;101335.00;;;18.90
34807;BMP180;18310;55.586;12.286;2022-11-15T12:24:06;101331.00;;;18.90
34807;BMP180;18310;55.586;12.286;2022-11-15T12:27:18;101330.00;;;19.00
34807;BMP180;18310;55.586;12.286;2022-11-15T12:30:43;101321.00;;;19.00
34807;BMP180;18310;55.586;12.286;2022-11-15T12:33:49;101322.00;;;19.10
34807;BMP180;18310;55.586;12.286;2022-11-15T12:36:53;101318.00;;;19.10
34807;BMP180;18310;55.586;12.286;2022-11-15T12:40:29;101314.00;;;19.10
34807;BMP180;18310;55.586;12.286;2022-11-15T12:43:40;101316.00;;;19.10
34807;BMP180;18310;55.586;12.286;2022-11-15T12:47:13;101310.00;;;19.10
34807;BMP180;18310;55.586;12.286;2022-11-15T12:50:53;101317.00;;;19.10
34807;BMP180;18310;55.586;12.286;2022-11-15T12:54:00;101315.00;;;19.10
34807;BMP180;18310;55.586;12.286;2022-11-15T12:57:34;101302.00;;;19.10
34807;BMP180;18310;55.586;12.286;2022-11-15T13:00:38;101310.00;;;19.10
34807;BMP180;18310;55.586;12.286;2022-11-15T13:04:22;101306.00;;;19.10
34807;BMP180;18310;55.586;12.286;2022-11-15T13:07:56;101309.00;;;19.10
34807;BMP180;18310;55.586;12.286;2022-11-15T13:11:45;101314.00;;;19.10
34807;BMP180;18310;55.586;12.286;2022-11-15T13:14:51;101318.00;;;19.10
34807;BMP180;18310;55.586;12.286;2022-11-15T13:17:58;101311.00;;;19.10
34807;BMP180;18310;55.586;12.286;2022-11-15T13:21:20;101311.00;;;19.10
34807;BMP180;18310;55.586;12.286;2022-11-15T13:24:46;101306.00;;;19.10
34807;BMP180;18310;55.586;12.286;2022-11-15T13:27:52;101319.00;;;19.10
34807;BMP180;18310;55.586;12.286;2022-11-15T13:30:59;101308.00;;;19.10
34807;BMP180;18310;55.586;12.286;2022-11-15T13:34:20;101318.00;;;19.10
34807;BMP180;18310;55.586;12.286;2022-11-15T13:37:45;101307.00;;;19.10
34807;BMP180;18310;55.586;12.286;2022-11-15T13:40:50;101317.00;;;19.20
34807;BMP180;18310;55.586;12.286;2022-11-15T13:44:01;101308.00;;;19.20
34807;BMP180;18310;55.586;12.286;2022-11-15T13:47:29;101306.00;;;19.10
34807;BMP180;18310;55.586;12.286;2022-11-15T13:50:38;101304.00;;;19.10
34807;BMP180;18310;55.586;12.286;2022-11-15T13:53:46;101301.00;;;19.20
34807;BMP180;18310;55.586;12.286;2022-11-15T13:57:02;101293.00;;;19.20
34807;BMP180;18310;55.586;12.286;2022-11-15T14:00:30;101294.00;;;19.20
34807;BMP180;18310;55.586;12.286;2022-11-15T14:03:42;101286.00;;;19.20
34807;BMP180;18310;55.586;12.286;2022-11-15T14:06:52;101285.00;;;19.20
34807;BMP180;18310;55.586;12.286;2022-11-15T14:09:56;101280.00;;;19.20
34807;BMP180;18310;55.586;12.286;2022-11-15T14:13:01;101285.00;;;19.20
34807;BMP180;18310;55.586;12.286;2022-11-15T14:16:20;101284.00;;;19.20
34807;BMP180;18310;55.586;12.286;2022-11-15T14:19:40;101299.00;;;19.20
34807;BMP180;18310;55.586;12.286;2022-11-15T14:22:52;101292.00;;;19.20
34807;BMP180;18310;55.586;12.286;2022-11-15T14:26:00;101293.00;;;19.20
34807;BMP180;18310;55.586;12.286;2022-11-15T14:29:25;101293.00;;;19.20
34807;BMP180;18310;55.586;12.286;2022-11-15T14:32:43;101294.00;;;19.20
34807;BMP180;18310;55.586;12.286;2022-11-15T14:35:47;101293.00;;;19.20
34807;BMP180;18310;55.586;12.286;2022-11-15T14:38:51;101300.00;;;19.20
34807;BMP180;18310;55.586;12.286;2022-11-15T14:42:00;101287.00;;;19.10
34807;BMP180;18310;55.586;12.286;2022-11-15T14:45:13;101290.00;;;19.00
34807;BMP180;18310;55.586;12.286;2022-11-15T14:48:21;101282.00;;;19.00
34807;BMP180;18310;55.586;12.286;2022-11-15T14:51:25;101289.00;;;18.90
34807;BMP180;18310;55.586;12.286;2022-11-15T14:54:28;101282.00;;;18.90
34807;BMP180;18310;55.586;12.286;2022-11-15T14:57:33;101291.00;;;18.90
34807;BMP180;18310;55.586;12.286;2022-11-15T15:00:40;101293.00;;;18.80
34807;BMP180;18310;55.586;12.286;2022-11-15T15:03:45;101288.00;;;18.80
34807;BMP180;18310;55.586;12.286;2022-11-15T15:06:48;101294.00;;;18.80
34807;BMP180;18310;55.586;12.286;2022-11-15T15:09:52;101286.00;;;18.80
34807;BMP180;18310;55.586;12.286;2022-11-15T15:13:19;101290.00;;;18.90
34807;BMP180;18310;55.586;12.286;2022-11-15T15:16:23;101295.00;;;18.90
34807;BMP180;18310;55.586;12.286;2022-11-15T15:19:27;101297.00;;;18.80
34807;BMP180;18310;55.586;12.286;2022-11-15T15:22:31;101292.00;;;18.80
34807;BMP180;18310;55.586;12.286;2022-11-15T15:25:35;101290.00;;;18.80
34807;BMP180;18310;55.586;12.286;2022-11-15T15:28:38;101285.00;;;18.80
34807;BMP180;18310;55.586;12.286;2022-11-15T15:31:42;101290.00;;;18.80
34807;BMP180;18310;55.586;12.286;2022-11-15T15:34:48;101279.00;;;18.80
34807;BMP180;18310;55.586;12.286;2022-11-15T15:37:54;101270.00;;;18.80
34807;BMP180;18310;55.586;12.286;2022-11-15T15:40:58;101275.00;;;18.80
34807;BMP180;18310;55.586;12.286;2022-11-15T15:44:03;101273.00;;;18.80
34807;BMP180;18310;55.586;12.286;2022-11-15T15:47:11;101260.00;;;18.80
34807;BMP180;18310;55.586;12.286;2022-11-15T15:50:23;101263.00;;;18.80
34807;BMP180;18310;55.586;12.286;2022-11-15T15:53:28;101266.00;;;18.80
34807;BMP180;18310;55.586;12.286;2022-11-15T15:56:32;101282.00;;;18.80
34807;BMP180;18310;55.586;12.286;2022-11-15T15:59:36;101286.00;;;18.80
34807;BMP180;18310;55.586;12.286;2022-11-15T16:02:40;101293.00;;;18.80
34807;BMP180;18310;55.586;12.286;2022-11-15T16:05:44;101281.00;;;18.80
34807;BMP180;18310;55.586;12.286;2022-11-15T16:08:48;101258.00;;;18.70
34807;BMP180;18310;55.586;12.286;2022-11-15T16:12:12;101270.00;;;18.80
34807;BMP180;18310;55.586;12.286;2022-11-15T16:15:17;101259.00;;;18.80
34807;BMP180;18310;55.586;12.286;2022-11-15T16:18:21;101268.00;;;18.80
34807;BMP180;18310;55.586;12.286;2022-11-15T16:21:27;101256.00;;;18.70
34807;BMP180;18310;55.586;12.286;2022-11-15T16:24:31;101256.00;;;18.70
34807;BMP180;18310;55.586;12.286;2022-11-15T16:27:36;101256.00;;;18.70
34807;BMP180;18310;55.586;12.286;2022-11-15T16:30:47;101245.00;;;18.80
34807;BMP180;18310;55.586;12.286;2022-11-15T16:33:59;101259.00;;;18.70
34807;BMP180;18310;55.586;12.286;2022-11-15T16:37:22;101257.00;;;18.80
34807;BMP180;18310;55.586;12.286;2022-11-15T16:40:49;101261.00;;;18.70
34807;BMP180;18310;55.586;12.286;2022-11-15T16:44:01;101264.00;;;18.70
34807;BMP180;18310;55.586;12.286;2022-11-15T16:47:16;101259.00;;;18.70
34807;BMP180;18310;55.586;12.286;2022-11-15T16:50:24;101257.00;;;18.70
34807;BMP180;18310;55.586;12.286;2022-11-15T16:53:29;101263.00;;;18.70
34807;BMP180;18310;55.586;12.286;2022-11-15T16:56:34;101251.00;;;18.80
34807;BMP180;18310;55.586;12.286;2022-11-15T16:59:38;101255.00;;;18.80
34807;BMP180;18310;55.586;12.286;2022-11-15T17:02:45;101258.00;;;18.80
34807;BMP180;18310;55.586;12.286;2022-11-15T17:05:51;101252.00;;;18.90
34807;BMP180;18310;55.586;12.286;2022-11-15T17:09:04;101264.00;;;18.90
34807;BMP180;18310;55.586;12.286;2022-11-15T17:12:08;101252.00;;;18.90
34807;BMP180;18310;55.586;12.286;2022-11-15T17:15:13;101262.00;;;18.90
34807;BMP180;18310;55.586;12.286;2022-11-15T17:18:17;101261.00;;;18.90
34807;BMP180;18310;55.586;12.286;2022-11-15T17:21:23;101262.00;;;18.90
34807;BMP180;18310;55.586;12.286;2022-11-15T17:24:39;101275.00;;;18.90
34807;BMP180;18310;55.586;12.286;2022-11-15T17:27:46;101268.00;;;18.90
34807;BMP180;18310;55.586;12.286;2022-11-15T17:30:49;101272.00;;;18.90
34807;BMP180;18310;55.586;12.286;2022-11-15T17:33:53;101279.00;;;18.90
34807;BMP180;18310;55.586;12.286;2022-11-15T17:36:56;101276.00;;;18.80
34807;BMP180;18310;55.586;12.286;2022-11-15T17:40:01;101268.00;;;18.80
34807;BMP180;18310;55.586;12.286;2022-11-15T17:43:05;101267.00;;;18.80